sensor_id;sensor_type;location;lat;lon;timestamp;P1;durP1;ratioP1;P2;durP2;ratioP2
10154;SDS011;5118;48.570;7.916;2024-02-14T00:01:29;6.53;;;4.90;;
10154;SDS011;5118;48.570;7.916;2024-02-14T00:03:58;6.20;;;4.13;;
10154;SDS011;5118;48.570;7.916;2024-02-14T00:06:26;5.10;;;3.90;;
10154;SDS011;5118;48.570;7.916;2024-02-14T00:08:54;6.50;;;4.17;;
10154;SDS011;5118;48.570;7.916;2024-02-14T00:11:23;4.83;;;3.97;;
10154;SDS011;5118;48.570;7.916;2024-02-14T00:13:52;5.53;;;4.30;;
10154;SDS011;5118;48.570;7.916;2024-02-14T00:16:21;5.57;;;4.00;;
10154;SDS011;5118;48.570;7.916;2024-02-14T00:18:50;5.33;;;3.83;;
10154;SDS011;5118;48.570;7.916;2024-02-14T00:21:18;5.73;;;4.00;;
10154;SDS011;5118;48.570;7.916;2024-02-14T00:23:47;6.43;;;4.70;;
10154;SDS011;5118;48.570;7.916;2024-02-14T00:26:15;6.50;;;4.80;;
10154;SDS011;5118;48.570;7.916;2024-02-14T00:28:43;6.37;;;4.60;;
10154;SDS011;5118;48.570;7.916;2024-02-14T00:31:12;9.00;;;5.03;;
10154;SDS011;5118;48.570;7.916;2024-02-14T00:33:59;6.23;;;4.90;;
10154;SDS011;5118;48.570;7.916;2024-02-14T00:36:28;6.43;;;4.90;;
10154;SDS011;5118;48.570;7.916;2024-02-14T00:38:56;6.10;;;4.50;;
10154;SDS011;5118;48.570;7.916;2024-02-14T00:41:24;5.50;;;4.53;;
10154;SDS011;5118;48.570;7.916;2024-02-14T00:44:00;6.07;;;4.60;;
10154;SDS011;5118;48.570;7.916;2024-02-14T00:46:29;6.40;;;4.23;;
10154;SDS011;5118;48.570;7.916;2024-02-14T00:48:58;7.40;;;4.50;;
10154;SDS011;5118;48.570;7.916;2024-02-14T00:51:27;7.70;;;4.40;;
10154;SDS011;5118;48.570;7.916;2024-02-14T00:53:56;5.43;;;4.30;;
10154;SDS011;5118;48.570;7.916;2024-02-14T00:56:24;6.63;;;4.10;;
10154;SDS011;5118;48.570;7.916;2024-02-14T00:58:53;5.27;;;4.33;;
10154;SDS011;5118;48.570;7.916;2024-02-14T01:01:21;5.70;;;3.90;;
10154;SDS011;5118;48.570;7.916;2024-02-14T01:03:50;4.80;;;4.03;;
10154;SDS011;5118;48.570;7.916;2024-02-14T01:06:19;6.23;;;4.23;;
10154;SDS011;5118;48.570;7.916;2024-02-14T01:08:48;5.43;;;4.00;;
10154;SDS011;5118;48.570;7.916;2024-02-14T01:11:16;5.37;;;3.97;;
10154;SDS011;5118;48.570;7.916;2024-02-14T01:13:45;4.90;;;4.03;;
10154;SDS011;5118;48.570;7.916;2024-02-14T01:16:14;6.17;;;4.40;;
10154;SDS011;5118;48.570;7.916;2024-02-14T01:18:43;5.73;;;4.20;;
10154;SDS011;5118;48.570;7.916;2024-02-14T01:21:11;6.87;;;3.93;;
10154;SDS011;5118;48.570;7.916;2024-02-14T01:23:41;7.43;;;4.17;;
10154;SDS011;5118;48.570;7.916;2024-02-14T01:26:09;7.57;;;3.90;;
10154;SDS011;5118;48.570;7.916;2024-02-14T01:28:38;4.87;;;3.80;;
10154;SDS011;5118;48.570;7.916;2024-02-14T01:31:06;5.30;;;3.83;;
10154;SDS011;5118;48.570;7.916;2024-02-14T01:33:38;4.00;;;3.30;;
10154;SDS011;5118;48.570;7.916;2024-02-14T01:36:07;5.23;;;3.50;;
10154;SDS011;5118;48.570;7.916;2024-02-14T01:38:35;6.07;;;3.60;;
10154;SDS011;5118;48.570;7.916;2024-02-14T01:41:06;6.33;;;3.30;;
10154;SDS011;5118;48.570;7.916;2024-02-14T01:43:34;6.07;;;3.40;;
10154;SDS011;5118;48.570;7.916;2024-02-14T01:46:04;4.47;;;3.00;;
10154;SDS011;5118;48.570;7.916;2024-02-14T01:48:44;5.33;;;3.50;;
10154;SDS011;5118;48.570;7.916;2024-02-14T01:51:13;5.20;;;3.60;;
10154;SDS011;5118;48.570;7.916;2024-02-14T01:53:45;5.00;;;3.57;;
10154;SDS011;5118;48.570;7.916;2024-02-14T01:56:15;4.80;;;3.50;;
10154;SDS011;5118;48.570;7.916;2024-02-14T01:58:44;5.83;;;3.60;;
10154;SDS011;5118;48.570;7.916;2024-02-14T02:01:13;3.97;;;3.40;;
10154;SDS011;5118;48.570;7.916;2024-02-14T02:03:44;6.77;;;3.30;;
10154;SDS011;5118;48.570;7.916;2024-02-14T02:06:13;6.40;;;3.33;;
10154;SDS011;5118;48.570;7.916;2024-02-14T02:08:42;5.57;;;3.40;;
10154;SDS011;5118;48.570;7.916;2024-02-14T02:11:11;4.87;;;2.73;;
10154;SDS011;5118;48.570;7.916;2024-02-14T02:14:02;4.17;;;3.27;;
10154;SDS011;5118;48.570;7.916;2024-02-14T02:16:50;5.37;;;3.10;;
10154;SDS011;5118;48.570;7.916;2024-02-14T02:19:38;5.53;;;3.10;;
10154;SDS011;5118;48.570;7.916;2024-02-14T02:22:27;4.33;;;3.13;;
10154;SDS011;5118;48.570;7.916;2024-02-14T02:25:20;5.43;;;3.20;;
10154;SDS011;5118;48.570;7.916;2024-02-14T02:28:11;4.70;;;3.10;;
10154;SDS011;5118;48.570;7.916;2024-02-14T02:30:43;4.13;;;2.83;;
10154;SDS011;5118;48.570;7.916;2024-02-14T02:33:13;6.57;;;3.20;;
10154;SDS011;5118;48.570;7.916;2024-02-14T02:35:41;4.60;;;2.83;;
10154;SDS011;5118;48.570;7.916;2024-02-14T02:38:31;4.00;;;3.00;;
10154;SDS011;5118;48.570;7.916;2024-02-14T02:41:22;4.73;;;3.30;;
10154;SDS011;5118;48.570;7.916;2024-02-14T02:44:11;3.97;;;2.93;;
10154;SDS011;5118;48.570;7.916;2024-02-14T02:47:02;4.30;;;2.63;;
10154;SDS011;5118;48.570;7.916;2024-02-14T02:49:51;3.87;;;2.87;;
10154;SDS011;5118;48.570;7.916;2024-02-14T02:52:27;5.60;;;3.20;;
10154;SDS011;5118;48.570;7.916;2024-02-14T02:55:17;5.23;;;3.20;;
10154;SDS011;5118;48.570;7.916;2024-02-14T02:57:50;4.80;;;2.97;;
10154;SDS011;5118;48.570;7.916;2024-02-14T03:00:19;5.50;;;3.13;;
10154;SDS011;5118;48.570;7.916;2024-02-14T03:03:02;5.17;;;3.00;;
10154;SDS011;5118;48.570;7.916;2024-02-14T03:05:46;5.13;;;2.73;;
10154;SDS011;5118;48.570;7.916;2024-02-14T03:08:25;4.70;;;2.73;;
10154;SDS011;5118;48.570;7.916;2024-02-14T03:11:15;5.43;;;3.00;;
10154;SDS011;5118;48.570;7.916;2024-02-14T03:14:04;3.70;;;3.03;;
10154;SDS011;5118;48.570;7.916;2024-02-14T03:16:54;4.27;;;2.97;;
10154;SDS011;5118;48.570;7.916;2024-02-14T03:19:22;6.43;;;2.90;;
10154;SDS011;5118;48.570;7.916;2024-02-14T03:21:51;7.20;;;3.00;;
10154;SDS011;5118;48.570;7.916;2024-02-14T03:24:19;3.40;;;2.90;;
10154;SDS011;5118;48.570;7.916;2024-02-14T03:26:48;5.63;;;2.70;;
10154;SDS011;5118;48.570;7.916;2024-02-14T03:29:21;3.70;;;2.90;;
10154;SDS011;5118;48.570;7.916;2024-02-14T03:31:50;4.87;;;3.10;;
10154;SDS011;5118;48.570;7.916;2024-02-14T03:34:18;4.20;;;2.97;;
10154;SDS011;5118;48.570;7.916;2024-02-14T03:36:47;5.60;;;3.00;;
10154;SDS011;5118;48.570;7.916;2024-02-14T03:39:17;5.30;;;2.60;;
10154;SDS011;5118;48.570;7.916;2024-02-14T03:41:45;3.77;;;2.70;;
10154;SDS011;5118;48.570;7.916;2024-02-14T03:44:14;6.37;;;3.10;;
10154;SDS011;5118;48.570;7.916;2024-02-14T03:46:43;4.23;;;2.73;;
10154;SDS011;5118;48.570;7.916;2024-02-14T03:49:14;4.23;;;2.87;;
10154;SDS011;5118;48.570;7.916;2024-02-14T03:51:43;4.77;;;3.30;;
10154;SDS011;5118;48.570;7.916;2024-02-14T03:54:12;4.33;;;2.90;;
10154;SDS011;5118;48.570;7.916;2024-02-14T03:56:41;4.07;;;2.87;;
10154;SDS011;5118;48.570;7.916;2024-02-14T03:59:09;3.60;;;2.90;;
10154;SDS011;5118;48.570;7.916;2024-02-14T04:01:38;5.73;;;3.23;;
10154;SDS011;5118;48.570;7.916;2024-02-14T04:04:12;3.60;;;2.90;;
10154;SDS011;5118;48.570;7.916;2024-02-14T04:06:40;6.77;;;3.13;;
10154;SDS011;5118;48.570;7.916;2024-02-14T04:09:11;7.77;;;3.00;;
10154;SDS011;5118;48.570;7.916;2024-02-14T04:11:39;5.00;;;3.00;;
10154;SDS011;5118;48.570;7.916;2024-02-14T04:14:08;4.97;;;2.80;;
10154;SDS011;5118;48.570;7.916;2024-02-14T04:16:37;5.83;;;3.00;;
10154;SDS011;5118;48.570;7.916;2024-02-14T04:19:05;5.53;;;3.03;;
10154;SDS011;5118;48.570;7.916;2024-02-14T04:21:37;4.23;;;2.80;;
10154;SDS011;5118;48.570;7.916;2024-02-14T04:24:07;4.37;;;2.90;;
10154;SDS011;5118;48.570;7.916;2024-02-14T04:26:35;4.07;;;3.00;;
10154;SDS011;5118;48.570;7.916;2024-02-14T04:29:03;5.87;;;2.90;;
10154;SDS011;5118;48.570;7.916;2024-02-14T04:31:32;3.70;;;2.50;;
10154;SDS011;5118;48.570;7.916;2024-02-14T04:34:03;6.07;;;2.80;;
10154;SDS011;5118;48.570;7.916;2024-02-14T04:36:34;5.90;;;2.57;;
10154;SDS011;5118;48.570;7.916;2024-02-14T04:39:04;4.87;;;2.90;;
10154;SDS011;5118;48.570;7.916;2024-02-14T04:41:34;3.83;;;2.80;;
10154;SDS011;5118;48.570;7.916;2024-02-14T04:44:22;5.93;;;2.50;;
10154;SDS011;5118;48.570;7.916;2024-02-14T04:46:51;5.07;;;2.87;;
10154;SDS011;5118;48.570;7.916;2024-02-14T04:49:19;4.17;;;2.80;;
10154;SDS011;5118;48.570;7.916;2024-02-14T04:51:48;5.37;;;2.80;;
10154;SDS011;5118;48.570;7.916;2024-02-14T04:54:17;6.80;;;2.87;;
10154;SDS011;5118;48.570;7.916;2024-02-14T04:56:46;4.77;;;2.73;;
10154;SDS011;5118;48.570;7.916;2024-02-14T04:59:20;5.37;;;2.90;;
10154;SDS011;5118;48.570;7.916;2024-02-14T05:01:48;6.97;;;2.80;;
10154;SDS011;5118;48.570;7.916;2024-02-14T05:04:18;3.97;;;2.60;;
10154;SDS011;5118;48.570;7.916;2024-02-14T05:06:47;3.80;;;2.30;;
10154;SDS011;5118;48.570;7.916;2024-02-14T05:09:20;4.10;;;2.27;;
10154;SDS011;5118;48.570;7.916;2024-02-14T05:11:49;4.47;;;2.80;;
10154;SDS011;5118;48.570;7.916;2024-02-14T05:14:17;3.60;;;2.60;;
10154;SDS011;5118;48.570;7.916;2024-02-14T05:16:46;3.77;;;2.60;;
10154;SDS011;5118;48.570;7.916;2024-02-14T05:19:14;3.87;;;2.70;;
10154;SDS011;5118;48.570;7.916;2024-02-14T05:21:43;5.13;;;2.60;;
10154;SDS011;5118;48.570;7.916;2024-02-14T05:24:12;4.77;;;2.70;;
10154;SDS011;5118;48.570;7.916;2024-02-14T05:26:42;5.90;;;2.70;;
10154;SDS011;5118;48.570;7.916;2024-02-14T05:29:11;5.67;;;3.37;;
10154;SDS011;5118;48.570;7.916;2024-02-14T05:31:43;3.67;;;2.83;;
10154;SDS011;5118;48.570;7.916;2024-02-14T05:34:13;6.03;;;3.00;;
10154;SDS011;5118;48.570;7.916;2024-02-14T05:36:42;6.07;;;2.97;;
10154;SDS011;5118;48.570;7.916;2024-02-14T05:39:13;6.43;;;3.10;;
10154;SDS011;5118;48.570;7.916;2024-02-14T05:41:44;5.63;;;2.90;;
10154;SDS011;5118;48.570;7.916;2024-02-14T05:44:12;6.47;;;2.70;;
10154;SDS011;5118;48.570;7.916;2024-02-14T05:46:40;6.43;;;4.50;;
10154;SDS011;5118;48.570;7.916;2024-02-14T05:49:09;4.53;;;2.93;;
10154;SDS011;5118;48.570;7.916;2024-02-14T05:51:37;7.10;;;2.90;;
10154;SDS011;5118;48.570;7.916;2024-02-14T05:54:07;4.43;;;3.10;;
10154;SDS011;5118;48.570;7.916;2024-02-14T05:56:36;4.87;;;2.70;;
10154;SDS011;5118;48.570;7.916;2024-02-14T05:59:05;6.07;;;2.53;;
10154;SDS011;5118;48.570;7.916;2024-02-14T06:01:34;4.80;;;2.80;;
10154;SDS011;5118;48.570;7.916;2024-02-14T06:04:02;5.83;;;2.80;;
10154;SDS011;5118;48.570;7.916;2024-02-14T06:06:31;4.87;;;2.57;;
10154;SDS011;5118;48.570;7.916;2024-02-14T06:08:59;6.97;;;2.97;;
10154;SDS011;5118;48.570;7.916;2024-02-14T06:11:29;5.07;;;2.60;;
10154;SDS011;5118;48.570;7.916;2024-02-14T06:13:57;4.00;;;2.73;;
10154;SDS011;5118;48.570;7.916;2024-02-14T06:16:27;4.17;;;2.70;;
10154;SDS011;5118;48.570;7.916;2024-02-14T06:18:55;4.03;;;2.50;;
10154;SDS011;5118;48.570;7.916;2024-02-14T06:21:24;4.80;;;2.53;;
10154;SDS011;5118;48.570;7.916;2024-02-14T06:23:53;3.07;;;2.30;;
10154;SDS011;5118;48.570;7.916;2024-02-14T06:26:21;6.17;;;2.50;;
10154;SDS011;5118;48.570;7.916;2024-02-14T06:28:50;5.20;;;2.63;;
10154;SDS011;5118;48.570;7.916;2024-02-14T06:31:21;3.17;;;2.33;;
10154;SDS011;5118;48.570;7.916;2024-02-14T06:33:51;3.93;;;3.07;;
10154;SDS011;5118;48.570;7.916;2024-02-14T06:36:20;5.03;;;3.53;;
10154;SDS011;5118;48.570;7.916;2024-02-14T06:38:49;4.77;;;3.33;;
10154;SDS011;5118;48.570;7.916;2024-02-14T06:41:17;2.93;;;2.60;;
10154;SDS011;5118;48.570;7.916;2024-02-14T06:43:46;5.77;;;2.90;;
10154;SDS011;5118;48.570;7.916;2024-02-14T06:46:15;5.13;;;3.23;;
10154;SDS011;5118;48.570;7.916;2024-02-14T06:48:45;5.87;;;3.10;;
10154;SDS011;5118;48.570;7.916;2024-02-14T06:51:17;5.73;;;2.80;;
10154;SDS011;5118;48.570;7.916;2024-02-14T06:53:46;4.43;;;2.97;;
10154;SDS011;5118;48.570;7.916;2024-02-14T06:56:15;4.87;;;2.90;;
10154;SDS011;5118;48.570;7.916;2024-02-14T06:58:43;6.77;;;3.00;;
10154;SDS011;5118;48.570;7.916;2024-02-14T07:01:12;6.10;;;2.90;;
10154;SDS011;5118;48.570;7.916;2024-02-14T07:03:45;5.07;;;2.80;;
10154;SDS011;5118;48.570;7.916;2024-02-14T07:06:14;5.47;;;2.97;;
10154;SDS011;5118;48.570;7.916;2024-02-14T07:08:45;5.47;;;2.90;;
10154;SDS011;5118;48.570;7.916;2024-02-14T07:11:14;3.43;;;2.87;;
10154;SDS011;5118;48.570;7.916;2024-02-14T07:13:44;5.33;;;2.80;;
10154;SDS011;5118;48.570;7.916;2024-02-14T07:16:13;4.23;;;2.90;;
10154;SDS011;5118;48.570;7.916;2024-02-14T07:18:41;6.83;;;5.00;;
10154;SDS011;5118;48.570;7.916;2024-02-14T07:21:10;6.20;;;4.00;;
10154;SDS011;5118;48.570;7.916;2024-02-14T07:23:38;4.80;;;2.90;;
10154;SDS011;5118;48.570;7.916;2024-02-14T07:26:08;4.27;;;3.13;;
10154;SDS011;5118;48.570;7.916;2024-02-14T07:28:36;4.83;;;3.23;;
10154;SDS011;5118;48.570;7.916;2024-02-14T07:31:04;6.03;;;2.93;;
10154;SDS011;5118;48.570;7.916;2024-02-14T07:33:33;5.83;;;3.20;;
10154;SDS011;5118;48.570;7.916;2024-02-14T07:36:01;3.83;;;2.50;;
10154;SDS011;5118;48.570;7.916;2024-02-14T07:38:30;5.20;;;3.00;;
10154;SDS011;5118;48.570;7.916;2024-02-14T07:40:59;4.47;;;3.17;;
10154;SDS011;5118;48.570;7.916;2024-02-14T07:43:33;6.80;;;3.30;;
10154;SDS011;5118;48.570;7.916;2024-02-14T07:46:01;4.97;;;3.20;;
10154;SDS011;5118;48.570;7.916;2024-02-14T07:48:32;4.50;;;3.03;;
10154;SDS011;5118;48.570;7.916;2024-02-14T07:51:01;4.57;;;2.93;;
10154;SDS011;5118;48.570;7.916;2024-02-14T07:53:29;4.00;;;3.10;;
10154;SDS011;5118;48.570;7.916;2024-02-14T07:55:57;5.93;;;3.60;;
10154;SDS011;5118;48.570;7.916;2024-02-14T07:58:26;7.93;;;4.30;;
10154;SDS011;5118;48.570;7.916;2024-02-14T08:00:56;7.70;;;4.70;;
10154;SDS011;5118;48.570;7.916;2024-02-14T08:03:24;4.80;;;3.77;;
10154;SDS011;5118;48.570;7.916;2024-02-14T08:05:52;5.00;;;3.30;;
10154;SDS011;5118;48.570;7.916;2024-02-14T08:08:21;4.20;;;3.07;;
10154;SDS011;5118;48.570;7.916;2024-02-14T08:10:52;6.67;;;3.33;;
10154;SDS011;5118;48.570;7.916;2024-02-14T08:13:22;3.63;;;3.10;;
10154;SDS011;5118;48.570;7.916;2024-02-14T08:15:50;5.07;;;3.23;;
10154;SDS011;5118;48.570;7.916;2024-02-14T08:18:20;4.07;;;2.97;;
10154;SDS011;5118;48.570;7.916;2024-02-14T08:20:50;5.00;;;3.10;;
10154;SDS011;5118;48.570;7.916;2024-02-14T08:23:18;3.87;;;3.00;;
10154;SDS011;5118;48.570;7.916;2024-02-14T08:25:47;5.40;;;3.40;;
10154;SDS011;5118;48.570;7.916;2024-02-14T08:28:16;3.80;;;2.87;;
10154;SDS011;5118;48.570;7.916;2024-02-14T08:30:47;5.47;;;3.20;;
10154;SDS011;5118;48.570;7.916;2024-02-14T08:33:15;4.33;;;2.70;;
10154;SDS011;5118;48.570;7.916;2024-02-14T08:35:45;3.57;;;2.80;;
10154;SDS011;5118;48.570;7.916;2024-02-14T08:38:15;4.57;;;3.20;;
10154;SDS011;5118;48.570;7.916;2024-02-14T08:40:44;5.50;;;3.00;;
10154;SDS011;5118;48.570;7.916;2024-02-14T08:43:12;6.27;;;2.93;;
10154;SDS011;5118;48.570;7.916;2024-02-14T08:45:40;4.00;;;3.23;;
10154;SDS011;5118;48.570;7.916;2024-02-14T08:48:09;4.83;;;2.90;;
10154;SDS011;5118;48.570;7.916;2024-02-14T08:50:37;3.83;;;2.90;;
10154;SDS011;5118;48.570;7.916;2024-02-14T08:53:09;3.83;;;2.80;;
10154;SDS011;5118;48.570;7.916;2024-02-14T08:55:40;5.27;;;2.70;;
10154;SDS011;5118;48.570;7.916;2024-02-14T08:58:09;4.50;;;2.80;;
10154;SDS011;5118;48.570;7.916;2024-02-14T09:00:38;4.97;;;2.80;;
10154;SDS011;5118;48.570;7.916;2024-02-14T09:03:07;5.63;;;2.90;;
10154;SDS011;5118;48.570;7.916;2024-02-14T09:05:36;3.90;;;2.67;;
10154;SDS011;5118;48.570;7.916;2024-02-14T09:08:07;3.97;;;2.80;;
10154;SDS011;5118;48.570;7.916;2024-02-14T09:10:35;4.67;;;3.03;;
10154;SDS011;5118;48.570;7.916;2024-02-14T09:13:04;3.87;;;3.07;;
10154;SDS011;5118;48.570;7.916;2024-02-14T09:15:33;5.33;;;3.53;;
10154;SDS011;5118;48.570;7.916;2024-02-14T09:18:02;5.33;;;3.30;;
10154;SDS011;5118;48.570;7.916;2024-02-14T09:20:31;5.53;;;3.20;;
10154;SDS011;5118;48.570;7.916;2024-02-14T09:22:59;4.70;;;3.07;;
10154;SDS011;5118;48.570;7.916;2024-02-14T09:25:29;3.83;;;3.00;;
10154;SDS011;5118;48.570;7.916;2024-02-14T09:27:58;7.23;;;3.00;;
10154;SDS011;5118;48.570;7.916;2024-02-14T09:30:27;4.63;;;2.87;;
10154;SDS011;5118;48.570;7.916;2024-02-14T09:33:04;4.37;;;2.70;;
10154;SDS011;5118;48.570;7.916;2024-02-14T09:35:33;2.90;;;2.30;;
10154;SDS011;5118;48.570;7.916;2024-02-14T09:38:05;3.13;;;2.23;;
10154;SDS011;5118;48.570;7.916;2024-02-14T09:40:36;4.37;;;2.53;;
10154;SDS011;5118;48.570;7.916;2024-02-14T09:43:05;3.50;;;2.47;;
10154;SDS011;5118;48.570;7.916;2024-02-14T09:45:35;3.63;;;2.40;;
10154;SDS011;5118;48.570;7.916;2024-02-14T09:48:05;4.03;;;2.30;;
10154;SDS011;5118;48.570;7.916;2024-02-14T09:50:36;4.57;;;2.33;;
10154;SDS011;5118;48.570;7.916;2024-02-14T09:53:05;4.00;;;2.50;;
10154;SDS011;5118;48.570;7.916;2024-02-14T09:55:37;4.20;;;2.37;;
10154;SDS011;5118;48.570;7.916;2024-02-14T09:58:06;4.97;;;2.30;;
10154;SDS011;5118;48.570;7.916;2024-02-14T10:00:35;4.83;;;2.60;;
10154;SDS011;5118;48.570;7.916;2024-02-14T10:03:04;3.97;;;2.87;;
10154;SDS011;5118;48.570;7.916;2024-02-14T10:05:33;3.73;;;2.70;;
10154;SDS011;5118;48.570;7.916;2024-02-14T10:08:02;3.83;;;2.80;;
10154;SDS011;5118;48.570;7.916;2024-02-14T10:10:31;2.93;;;2.57;;
10154;SDS011;5118;48.570;7.916;2024-02-14T10:13:05;4.47;;;2.47;;
10154;SDS011;5118;48.570;7.916;2024-02-14T10:15:34;2.67;;;2.20;;
10154;SDS011;5118;48.570;7.916;2024-02-14T10:18:03;3.93;;;2.47;;
10154;SDS011;5118;48.570;7.916;2024-02-14T10:20:32;3.20;;;2.43;;
10154;SDS011;5118;48.570;7.916;2024-02-14T10:23:01;2.57;;;2.37;;
10154;SDS011;5118;48.570;7.916;2024-02-14T10:25:34;2.33;;;2.10;;
10154;SDS011;5118;48.570;7.916;2024-02-14T10:28:04;3.90;;;2.30;;
10154;SDS011;5118;48.570;7.916;2024-02-14T10:30:36;2.30;;;2.10;;
10154;SDS011;5118;48.570;7.916;2024-02-14T10:33:07;4.30;;;2.23;;
10154;SDS011;5118;48.570;7.916;2024-02-14T10:35:50;3.27;;;2.00;;
10154;SDS011;5118;48.570;7.916;2024-02-14T10:38:26;4.40;;;1.90;;
10154;SDS011;5118;48.570;7.916;2024-02-14T10:40:57;3.70;;;2.07;;
10154;SDS011;5118;48.570;7.916;2024-02-14T10:43:29;2.83;;;2.00;;
10154;SDS011;5118;48.570;7.916;2024-02-14T10:45:58;4.03;;;2.00;;
10154;SDS011;5118;48.570;7.916;2024-02-14T10:48:33;3.37;;;1.90;;
10154;SDS011;5118;48.570;7.916;2024-02-14T10:51:06;2.93;;;1.90;;
10154;SDS011;5118;48.570;7.916;2024-02-14T10:53:38;3.80;;;1.87;;
10154;SDS011;5118;48.570;7.916;2024-02-14T10:56:11;3.03;;;2.00;;
10154;SDS011;5118;48.570;7.916;2024-02-14T10:58:46;1.83;;;1.63;;
10154;SDS011;5118;48.570;7.916;2024-02-14T11:01:15;2.17;;;1.65;;
10154;SDS011;5118;48.570;7.916;2024-02-14T11:03:44;2.28;;;1.95;;
10154;SDS011;5118;48.570;7.916;2024-02-14T11:06:15;2.58;;;1.77;;
10154;SDS011;5118;48.570;7.916;2024-02-14T11:08:55;2.20;;;1.80;;
10154;SDS011;5118;48.570;7.916;2024-02-14T11:11:24;2.47;;;2.10;;
10154;SDS011;5118;48.570;7.916;2024-02-14T11:13:54;3.00;;;2.40;;
10154;SDS011;5118;48.570;7.916;2024-02-14T11:16:24;3.75;;;2.10;;
10154;SDS011;5118;48.570;7.916;2024-02-14T11:19:05;3.10;;;2.00;;
10154;SDS011;5118;48.570;7.916;2024-02-14T11:21:36;1.77;;;1.63;;
10154;SDS011;5118;48.570;7.916;2024-02-14T11:24:06;3.90;;;2.10;;
10154;SDS011;5118;48.570;7.916;2024-02-14T11:26:38;3.70;;;1.80;;
10154;SDS011;5118;48.570;7.916;2024-02-14T11:29:13;2.00;;;1.50;;
10154;SDS011;5118;48.570;7.916;2024-02-14T11:31:57;2.13;;;1.52;;
10154;SDS011;5118;48.570;7.916;2024-02-14T11:34:26;1.73;;;1.63;;
10154;SDS011;5118;48.570;7.916;2024-02-14T11:36:55;2.08;;;1.65;;
10154;SDS011;5118;48.570;7.916;2024-02-14T11:39:23;1.63;;;1.40;;
10154;SDS011;5118;48.570;7.916;2024-02-14T11:41:52;1.50;;;1.40;;
10154;SDS011;5118;48.570;7.916;2024-02-14T11:44:22;3.60;;;2.30;;
10154;SDS011;5118;48.570;7.916;2024-02-14T11:46:52;2.90;;;2.70;;
10154;SDS011;5118;48.570;7.916;2024-02-14T11:49:21;3.70;;;1.97;;
10154;SDS011;5118;48.570;7.916;2024-02-14T11:51:50;2.67;;;2.13;;
10154;SDS011;5118;48.570;7.916;2024-02-14T11:54:20;2.80;;;2.50;;
10154;SDS011;5118;48.570;7.916;2024-02-14T11:56:48;1.83;;;1.73;;
10154;SDS011;5118;48.570;7.916;2024-02-14T11:59:17;3.10;;;2.10;;
10154;SDS011;5118;48.570;7.916;2024-02-14T12:01:48;2.28;;;1.90;;
10154;SDS011;5118;48.570;7.916;2024-02-14T12:04:18;3.30;;;2.20;;
10154;SDS011;5118;48.570;7.916;2024-02-14T12:06:47;3.03;;;1.80;;
10154;SDS011;5118;48.570;7.916;2024-02-14T12:09:15;4.60;;;2.15;;
10154;SDS011;5118;48.570;7.916;2024-02-14T12:11:52;2.38;;;2.00;;
10154;SDS011;5118;48.570;7.916;2024-02-14T12:14:21;2.38;;;2.17;;
10154;SDS011;5118;48.570;7.916;2024-02-14T12:16:55;2.72;;;2.00;;
10154;SDS011;5118;48.570;7.916;2024-02-14T12:19:27;2.85;;;2.05;;
10154;SDS011;5118;48.570;7.916;2024-02-14T12:21:59;2.88;;;1.85;;
10154;SDS011;5118;48.570;7.916;2024-02-14T12:24:29;3.00;;;2.05;;
10154;SDS011;5118;48.570;7.916;2024-02-14T12:26:57;2.33;;;2.08;;
10154;SDS011;5118;48.570;7.916;2024-02-14T12:29:26;2.33;;;1.90;;
10154;SDS011;5118;48.570;7.916;2024-02-14T12:32:04;3.35;;;2.00;;
10154;SDS011;5118;48.570;7.916;2024-02-14T12:34:33;2.08;;;1.88;;
10154;SDS011;5118;48.570;7.916;2024-02-14T12:37:03;1.92;;;1.60;;
10154;SDS011;5118;48.570;7.916;2024-02-14T12:39:32;2.47;;;1.90;;
10154;SDS011;5118;48.570;7.916;2024-02-14T12:42:00;3.88;;;1.77;;
10154;SDS011;5118;48.570;7.916;2024-02-14T12:44:29;2.47;;;1.80;;
10154;SDS011;5118;48.570;7.916;2024-02-14T12:46:58;2.60;;;2.00;;
10154;SDS011;5118;48.570;7.916;2024-02-14T12:49:29;2.53;;;2.10;;
10154;SDS011;5118;48.570;7.916;2024-02-14T12:52:00;2.35;;;2.03;;
10154;SDS011;5118;48.570;7.916;2024-02-14T12:54:28;2.80;;;2.40;;
10154;SDS011;5118;48.570;7.916;2024-02-14T12:57:00;4.10;;;2.65;;
10154;SDS011;5118;48.570;7.916;2024-02-14T12:59:30;3.45;;;2.20;;
10154;SDS011;5118;48.570;7.916;2024-02-14T13:01:59;2.53;;;1.60;;
10154;SDS011;5118;48.570;7.916;2024-02-14T13:04:29;2.13;;;1.80;;
10154;SDS011;5118;48.570;7.916;2024-02-14T13:06:58;1.77;;;1.50;;
10154;SDS011;5118;48.570;7.916;2024-02-14T13:09:27;1.88;;;1.50;;
10154;SDS011;5118;48.570;7.916;2024-02-14T13:11:57;2.15;;;1.95;;
10154;SDS011;5118;48.570;7.916;2024-02-14T13:14:26;1.73;;;1.63;;
10154;SDS011;5118;48.570;7.916;2024-02-14T13:16:58;1.75;;;1.65;;
10154;SDS011;5118;48.570;7.916;2024-02-14T13:19:30;3.33;;;1.67;;
10154;SDS011;5118;48.570;7.916;2024-02-14T13:21:59;1.75;;;1.50;;
10154;SDS011;5118;48.570;7.916;2024-02-14T13:24:28;1.88;;;1.60;;
10154;SDS011;5118;48.570;7.916;2024-02-14T13:26:58;3.15;;;2.40;;
10154;SDS011;5118;48.570;7.916;2024-02-14T13:29:27;4.10;;;3.70;;
10154;SDS011;5118;48.570;7.916;2024-02-14T13:31:56;1.50;;;1.40;;
10154;SDS011;5118;48.570;7.916;2024-02-14T13:34:27;2.35;;;1.88;;
10154;SDS011;5118;48.570;7.916;2024-02-14T13:36:59;2.95;;;2.38;;
10154;SDS011;5118;48.570;7.916;2024-02-14T13:39:29;3.45;;;2.22;;
10154;SDS011;5118;48.570;7.916;2024-02-14T13:41:58;2.40;;;1.80;;
10154;SDS011;5118;48.570;7.916;2024-02-14T13:44:28;2.10;;;1.88;;
10154;SDS011;5118;48.570;7.916;2024-02-14T13:46:57;3.95;;;3.10;;
10154;SDS011;5118;48.570;7.916;2024-02-14T13:49:27;3.95;;;2.25;;
10154;SDS011;5118;48.570;7.916;2024-02-14T13:52:00;2.10;;;1.88;;
10154;SDS011;5118;48.570;7.916;2024-02-14T13:54:28;2.75;;;1.63;;
10154;SDS011;5118;48.570;7.916;2024-02-14T13:56:56;3.15;;;1.80;;
10154;SDS011;5118;48.570;7.916;2024-02-14T13:59:25;3.47;;;1.95;;
10154;SDS011;5118;48.570;7.916;2024-02-14T14:01:54;2.72;;;1.83;;
10154;SDS011;5118;48.570;7.916;2024-02-14T14:04:24;4.38;;;2.20;;
10154;SDS011;5118;48.570;7.916;2024-02-14T14:06:53;2.22;;;1.88;;
10154;SDS011;5118;48.570;7.916;2024-02-14T14:09:24;2.35;;;1.75;;
10154;SDS011;5118;48.570;7.916;2024-02-14T14:11:53;2.53;;;1.90;;
10154;SDS011;5118;48.570;7.916;2024-02-14T14:14:21;3.67;;;2.63;;
10154;SDS011;5118;48.570;7.916;2024-02-14T14:16:53;5.28;;;2.78;;
10154;SDS011;5118;48.570;7.916;2024-02-14T14:19:22;3.75;;;2.80;;
10154;SDS011;5118;48.570;7.916;2024-02-14T14:21:51;6.45;;;4.03;;
10154;SDS011;5118;48.570;7.916;2024-02-14T14:24:19;6.38;;;5.03;;
10154;SDS011;5118;48.570;7.916;2024-02-14T14:26:49;3.35;;;2.90;;
10154;SDS011;5118;48.570;7.916;2024-02-14T14:29:18;4.13;;;2.88;;
10154;SDS011;5118;48.570;7.916;2024-02-14T14:31:46;2.50;;;2.30;;
10154;SDS011;5118;48.570;7.916;2024-02-14T14:34:17;3.65;;;2.75;;
10154;SDS011;5118;48.570;7.916;2024-02-14T14:36:46;2.53;;;2.33;;
10154;SDS011;5118;48.570;7.916;2024-02-14T14:39:17;2.53;;;2.33;;
10154;SDS011;5118;48.570;7.916;2024-02-14T14:41:46;2.58;;;2.38;;
10154;SDS011;5118;48.570;7.916;2024-02-14T14:44:16;2.92;;;1.95;;
10154;SDS011;5118;48.570;7.916;2024-02-14T14:46:45;2.85;;;1.98;;
10154;SDS011;5118;48.570;7.916;2024-02-14T14:49:14;2.20;;;1.83;;
10154;SDS011;5118;48.570;7.916;2024-02-14T14:51:42;1.70;;;1.60;;
10154;SDS011;5118;48.570;7.916;2024-02-14T14:54:11;2.85;;;1.65;;
10154;SDS011;5118;48.570;7.916;2024-02-14T14:56:40;2.55;;;2.00;;
10154;SDS011;5118;48.570;7.916;2024-02-14T14:59:08;2.50;;;2.30;;
10154;SDS011;5118;48.570;7.916;2024-02-14T15:01:38;2.95;;;2.65;;
10154;SDS011;5118;48.570;7.916;2024-02-14T15:04:06;5.45;;;2.13;;
10154;SDS011;5118;48.570;7.916;2024-02-14T15:06:34;2.25;;;2.00;;
10154;SDS011;5118;48.570;7.916;2024-02-14T15:09:03;2.00;;;1.90;;
10154;SDS011;5118;48.570;7.916;2024-02-14T15:11:32;2.38;;;1.80;;
10154;SDS011;5118;48.570;7.916;2024-02-14T15:14:00;2.53;;;2.33;;
10154;SDS011;5118;48.570;7.916;2024-02-14T15:16:30;2.20;;;2.00;;
10154;SDS011;5118;48.570;7.916;2024-02-14T15:18:59;1.60;;;1.50;;
10154;SDS011;5118;48.570;7.916;2024-02-14T15:21:28;1.58;;;1.48;;